Philip S. W. Goldson International Airport
MZBZ : now visible

Airfield :











YOU CAN JOIN US ON...

 
LOGIN :

Register | Disclaimer

   EN    FR    IT 

 









Legend :    VFR   Marginal VFR   IFR   Intensive IFR   Very Intensive IFR
Visi :
Ceiling :
>= 8 km
>= 3000ft
5 to 8 km
1000 to 3000 ft
1500m to 5 km
500 to 1000 ft
800 to 1500m
200 to 500 ft
< 800m
< 200 ft
Symbols :   Thunderstorms  Fog  Heavy snow  Heavy precipitations  Wind > 20 kt






- Airport Elevation : 15 ft
- IATA code : BZE


MZBZ - Philip S. W. Goldson International

CURRENT METAR :
  • 082000Z 09005KT 9999 FEW025 SCT049 31/26 A2996 Q1014 NOSIG

EXPIRED METARs :
  • 081900Z 09008KT 9999 FEW025 SCT049 30/26 A2997 Q1015 NOSIG RMK DIST CBTOP-NE
  • 081800Z 11006KT 9999 SCT024 BKN048 29/25 A3000 Q1016 RESHRA NOSIG RMK DIST SHWR-W/NW/ DIST CBTOP-NE/SE

TAF TAF MZBZ
Valid from the 08 at 18:00 until the 09 at 18:00 UTC


081500Z 0818/0918 08009KT 9999 SCT022 SCT045
PROB30
TEMPO 0818/0821 5000 TSRA SCT012CB BKN035
PROB40
TEMPO 0906/0918 5000 SHRA BKN015
PROB30
TEMPO 0909/0915 3000 TSRA SCT012CB BKN035
MHTG FIR / North America



MET'MAP, your aeronautical weather chart ! - Copyright ORBIFLY December 2007 - Disclaimer

ORBIFLY MET'MAP TEAM :

Programming & Development : Alexandra Zaïnal
Concept & original design : Baudouin d'Aumeries
Assistance for programming : Marc-Olivier Méhu
Technical & hardware support : Manuel Goepfert

Contact : metmap@orbifly.com




SOURCES & CREDITS :

   NOAA       Earth
Advisory